createdAt,value
2022-11-27T00:00:40.696Z,15
2022-11-27T00:04:40.789Z,15.2
2022-11-27T00:08:40.598Z,16.03
2022-11-27T00:12:40.570Z,15.37
2022-11-27T00:16:40.534Z,16.13
2022-11-27T00:20:40.539Z,17.9
2022-11-27T00:24:40.801Z,16.97
2022-11-27T00:28:40.551Z,15.27
2022-11-27T00:32:40.444Z,15.47
2022-11-27T00:36:43.925Z,16.4
2022-11-27T00:40:40.625Z,16.1
2022-11-27T00:44:40.631Z,15.98
2022-11-27T00:48:40.828Z,15.27
2022-11-27T00:52:40.340Z,15.8
2022-11-27T00:56:40.466Z,16.77
2022-11-27T01:00:40.491Z,16.13
2022-11-27T01:04:40.754Z,16.8
2022-11-27T01:08:40.557Z,16.37
2022-11-27T01:12:40.650Z,15.3
2022-11-27T01:16:43.183Z,16.73
2022-11-27T01:20:40.455Z,17.73
2022-11-27T01:24:41.067Z,17.17
2022-11-27T01:28:41.158Z,18.57
2022-11-27T01:32:40.796Z,17.8
2022-11-27T01:36:40.435Z,17.07
2022-11-27T01:40:40.639Z,15.6
2022-11-27T01:44:40.823Z,16.37
2022-11-27T01:48:40.554Z,16.8
2022-11-27T01:52:39.941Z,14.07
2022-11-27T01:56:40.708Z,15.93
2022-11-27T02:00:40.138Z,15.77
2022-11-27T02:04:41.532Z,16.8
2022-11-27T02:08:40.575Z,15.17
2022-11-27T02:12:40.565Z,17.8
2022-11-27T02:16:40.482Z,17.53
2022-11-27T02:20:40.531Z,16.93
2022-11-27T02:24:40.610Z,16.97
2022-11-27T02:28:40.466Z,17.37
2022-11-27T02:32:40.561Z,17.07
2022-11-27T02:36:40.516Z,17.9
2022-11-27T02:40:40.465Z,17.37
2022-11-27T02:44:41.080Z,17.6
2022-11-27T02:48:40.493Z,16.73
2022-11-27T02:52:40.123Z,18.83
2022-11-27T02:56:40.555Z,16.9
2022-11-27T03:00:40.878Z,17.1
2022-11-27T03:04:40.799Z,17.17
2022-11-27T03:08:40.668Z,19.13
2022-11-27T03:12:40.558Z,18.03
2022-11-27T03:16:40.295Z,18.17
2022-11-27T03:20:40.481Z,20.7
2022-11-27T03:24:40.859Z,18.57
2022-11-27T03:28:40.344Z,18.57
2022-11-27T03:32:40.576Z,18.67
2022-11-27T03:36:40.526Z,19.63
2022-11-27T03:40:40.543Z,20.07
2022-11-27T03:44:40.849Z,19.93
2022-11-27T03:48:40.587Z,19.1
2022-11-27T03:52:40.536Z,18.37
2022-11-27T03:56:40.687Z,18.77
2022-11-27T04:00:40.610Z,17.83
2022-11-27T04:04:40.941Z,19
2022-11-27T04:08:40.523Z,17.07
2022-11-27T04:12:40.577Z,15.67
2022-11-27T04:16:40.694Z,16.57
2022-11-27T04:20:40.688Z,17.63
2022-11-27T04:24:40.724Z,17.43
2022-11-27T04:28:40.499Z,16.57
2022-11-27T04:32:40.634Z,16.63
2022-11-27T04:36:40.540Z,17.2
2022-11-27T04:40:39.808Z,15.67
2022-11-27T04:44:41.492Z,16.93
2022-11-27T04:48:40.660Z,16.93
2022-11-27T04:52:40.469Z,15.93
2022-11-27T04:56:40.561Z,13.83
2022-11-27T05:00:40.643Z,14.63
2022-11-27T05:04:40.924Z,14.33
2022-11-27T05:08:40.734Z,14.43
2022-11-27T05:12:40.477Z,14
2022-11-27T05:16:40.668Z,14.8
2022-11-27T05:20:40.443Z,16.2
2022-11-27T05:24:40.723Z,12.73
2022-11-27T05:28:41.116Z,13.57
2022-11-27T05:32:40.948Z,14.17
2022-11-27T05:36:40.294Z,13.93
2022-11-27T05:40:40.283Z,14
2022-11-27T05:44:40.835Z,13.3
2022-11-27T05:48:39.610Z,14.4
2022-11-27T05:52:40.851Z,14.7
2022-11-27T05:56:40.494Z,14.4
2022-11-27T06:00:40.957Z,13.27
2022-11-27T06:04:41.062Z,14
2022-11-27T06:08:40.785Z,13.73
2022-11-27T06:12:40.566Z,13.4
2022-11-27T06:16:40.787Z,14
2022-11-27T06:20:44.107Z,13.9
2022-11-27T06:24:41.456Z,14.57
2022-11-27T06:28:40.506Z,13.47
2022-11-27T06:32:40.822Z,13.27
2022-11-27T06:36:40.517Z,15.6
2022-11-27T06:40:40.378Z,15.03
2022-11-27T06:44:41.439Z,14.53
2022-11-27T06:48:40.447Z,16.5
2022-11-27T06:52:40.922Z,15.37
2022-11-27T06:56:40.446Z,14.4
2022-11-27T07:00:40.979Z,15.57
2022-11-27T07:04:40.833Z,15.33
2022-11-27T07:08:40.691Z,16.27
2022-11-27T07:12:41.185Z,15.87
2022-11-27T07:16:40.631Z,17.2
2022-11-27T07:20:40.470Z,15.93
2022-11-27T07:24:40.774Z,16.27
2022-11-27T07:28:40.562Z,27.8
2022-11-27T07:32:40.297Z,25.7
2022-11-27T07:36:40.609Z,18.87
2022-11-27T07:40:40.759Z,15.77
2022-11-27T07:44:39.971Z,17.3
2022-11-27T07:48:40.824Z,17.57
2022-11-27T07:52:42.184Z,19.47
2022-11-27T07:56:40.976Z,15.63
2022-11-27T08:00:40.702Z,16.57
2022-11-27T08:04:40.818Z,22.07
2022-11-27T08:08:40.505Z,20.63
2022-11-27T08:12:40.980Z,17.67
2022-11-27T08:16:40.653Z,19.93
2022-11-27T08:20:40.769Z,17.4
2022-11-27T08:24:40.930Z,19.53
2022-11-27T08:28:40.644Z,18.93
2022-11-27T08:32:40.426Z,18.8
2022-11-27T08:36:40.637Z,18.03
2022-11-27T08:40:41.291Z,16.53
2022-11-27T08:44:40.847Z,18.47
2022-11-27T08:48:40.902Z,19.57
2022-11-27T08:52:40.335Z,20.93
2022-11-27T08:56:40.448Z,18.87
2022-11-27T09:00:39.598Z,18.77
2022-11-27T09:04:40.765Z,19.13
2022-11-27T09:08:40.582Z,18.37
2022-11-27T09:12:43.351Z,15.9
2022-11-27T09:16:40.453Z,15.23
2022-11-27T09:20:40.560Z,15.63
2022-11-27T09:24:41.195Z,14.93
2022-11-27T09:28:40.466Z,15.17
2022-11-27T09:32:40.699Z,14.13
2022-11-27T09:36:40.378Z,15.07
2022-11-27T09:40:40.573Z,14
2022-11-27T09:44:40.887Z,11.57
2022-11-27T09:48:39.566Z,11.25
2022-11-27T09:52:40.870Z,11
2022-11-27T09:56:40.327Z,11.63
2022-11-27T10:00:40.702Z,9.73
2022-11-27T10:05:05.829Z,9.93
2022-11-27T10:08:40.460Z,11.57
2022-11-27T10:12:40.919Z,8.32
2022-11-27T10:16:44.551Z,9.52
2022-11-27T10:20:40.852Z,9
2022-11-27T10:24:40.567Z,8.95
2022-11-27T10:28:40.563Z,9.2
2022-11-27T10:32:54.977Z,8.15
2022-11-27T10:36:39.327Z,5.9
2022-11-27T10:40:40.571Z,6.22
2022-11-27T10:44:40.924Z,6.07
2022-11-27T10:48:40.467Z,8.1
2022-11-27T10:52:40.613Z,7
2022-11-27T10:56:40.180Z,7
2022-11-27T11:00:41.146Z,8.38
2022-11-27T11:04:40.468Z,5.55
2022-11-27T11:08:40.676Z,4.35
2022-11-27T11:12:40.674Z,6.15
2022-11-27T11:16:40.569Z,5.1
2022-11-27T11:20:39.995Z,5.03
2022-11-27T11:24:39.920Z,4.8
2022-11-27T11:28:40.541Z,4.68
2022-11-27T11:32:40.683Z,3.92
2022-11-27T11:36:40.527Z,3.83
2022-11-27T11:40:40.455Z,4.37
2022-11-27T11:44:40.899Z,4.03
2022-11-27T11:48:40.386Z,5.4
2022-11-27T11:52:40.442Z,4.82
2022-11-27T11:56:40.651Z,3.35
2022-11-27T12:00:58.441Z,3.75
2022-11-27T12:04:40.962Z,3.72
2022-11-27T12:08:41.046Z,4.05
2022-11-27T12:12:40.648Z,4.22
2022-11-27T12:16:40.365Z,4.82
2022-11-27T12:20:40.525Z,5.2
2022-11-27T12:24:41.077Z,4.3
2022-11-27T12:28:40.544Z,4.35
2022-11-27T12:32:40.522Z,4.78
2022-11-27T12:36:40.432Z,4.9
2022-11-27T12:40:40.487Z,4.35
2022-11-27T12:44:40.779Z,6.4
2022-11-27T12:48:40.702Z,5.47
2022-11-27T12:52:40.567Z,4.7
2022-11-27T12:56:39.318Z,4.75
2022-11-27T13:00:40.513Z,5.3
2022-11-27T13:04:40.786Z,3.8
2022-11-27T13:08:40.589Z,4.3
2022-11-27T13:12:40.486Z,4.35
2022-11-27T13:16:41.492Z,3.72
2022-11-27T13:20:40.051Z,3.72
2022-11-27T13:24:41.266Z,4.65
2022-11-27T13:28:40.606Z,4.1
2022-11-27T13:32:40.550Z,4.9
2022-11-27T13:36:40.369Z,5.25
2022-11-27T13:40:40.404Z,6.45
2022-11-27T13:44:40.591Z,4.07
2022-11-27T13:48:40.870Z,3.87
2022-11-27T13:52:39.783Z,4.15
2022-11-27T13:56:40.521Z,4.85
2022-11-27T14:00:40.876Z,4.82
2022-11-27T14:04:41.094Z,4.95
2022-11-27T14:08:40.473Z,4.45
2022-11-27T14:12:40.520Z,4.57
2022-11-27T14:16:41.144Z,5.35
2022-11-27T14:20:40.616Z,5.85
2022-11-27T14:24:41.469Z,5.65
2022-11-27T14:28:40.666Z,5.8
2022-11-27T14:32:40.736Z,6.05
2022-11-27T14:36:40.383Z,6.2
2022-11-27T14:40:40.617Z,6.05
2022-11-27T14:44:40.628Z,7
2022-11-27T14:48:40.727Z,8.68
2022-11-27T14:52:40.443Z,8.13
2022-11-27T14:56:40.393Z,8.73
2022-11-27T15:00:40.774Z,9.2
2022-11-27T15:04:40.638Z,8.13
2022-11-27T15:08:40.449Z,8.43
2022-11-27T15:12:40.681Z,10
2022-11-27T15:16:40.547Z,11.07
2022-11-27T15:20:40.528Z,12.07
2022-11-27T15:24:40.549Z,10.27
2022-11-27T15:28:40.480Z,10.07
2022-11-27T15:32:40.496Z,10.73
2022-11-27T15:36:41.200Z,10.1
2022-11-27T15:40:40.625Z,10.93
2022-11-27T15:44:40.888Z,10.1
2022-11-27T15:48:40.478Z,10.43
2022-11-27T15:52:40.673Z,10.23
2022-11-27T15:56:40.417Z,12.07
2022-11-27T16:00:40.754Z,12.4
2022-11-27T16:04:40.878Z,12.03
2022-11-27T16:08:40.562Z,11.5
2022-11-27T16:12:40.520Z,10.67
2022-11-27T16:16:40.394Z,12.67
2022-11-27T16:20:40.307Z,11.37
2022-11-27T16:24:40.958Z,11.53
2022-11-27T16:28:40.449Z,10.7
2022-11-27T16:32:40.511Z,12.27
2022-11-27T16:36:40.496Z,11.63
2022-11-27T16:40:40.581Z,12
2022-11-27T16:44:40.807Z,10.7
2022-11-27T16:48:40.510Z,11.53
2022-11-27T16:52:40.577Z,11.6
2022-11-27T16:56:41.202Z,10.2
2022-11-27T17:00:41.217Z,10.47
2022-11-27T17:04:40.649Z,10.6
2022-11-27T17:08:40.456Z,10.73
2022-11-27T17:12:40.796Z,10.57
2022-11-27T17:16:40.717Z,10.3
2022-11-27T17:20:40.957Z,9.83
2022-11-27T17:24:40.568Z,11.8
2022-11-27T17:28:40.912Z,9.57
2022-11-27T17:32:40.434Z,9.07
2022-11-27T17:36:40.579Z,9.57
2022-11-27T17:40:40.506Z,10.2
2022-11-27T17:44:39.749Z,9.8
2022-11-27T17:48:40.320Z,9.67
2022-11-27T17:52:40.534Z,9.7
2022-11-27T17:56:40.269Z,10
2022-11-27T18:00:40.785Z,11.2
2022-11-27T18:04:40.804Z,10.6
2022-11-27T18:08:40.574Z,9.5
2022-11-27T18:12:40.517Z,10.03
2022-11-27T18:16:41.439Z,10.2
2022-11-27T18:20:40.443Z,10.3
2022-11-27T18:24:40.535Z,10.4
2022-11-27T18:28:40.482Z,10.3
2022-11-27T18:32:40.479Z,11.53
2022-11-27T18:36:40.489Z,12
2022-11-27T18:40:40.574Z,10.7
2022-11-27T18:44:44.735Z,11.67
2022-11-27T18:48:40.340Z,12.03
2022-11-27T18:52:40.345Z,13.37
2022-11-27T18:56:40.536Z,13.27
2022-11-27T19:00:40.611Z,12.43
2022-11-27T19:04:41.126Z,12.97
2022-11-27T19:08:40.650Z,13.7
2022-11-27T19:12:40.497Z,12.73
2022-11-27T19:16:40.628Z,13.3
2022-11-27T19:20:40.698Z,13.87
2022-11-27T19:24:40.497Z,15.7
2022-11-27T19:28:40.490Z,14.3
2022-11-27T19:32:40.510Z,14.7
2022-11-27T19:36:40.509Z,14.67
2022-11-27T19:40:40.482Z,13.77
2022-11-27T19:44:40.871Z,15.03
2022-11-27T19:48:40.471Z,14.17
2022-11-27T19:52:40.731Z,13.8
2022-11-27T19:56:40.554Z,15.1
2022-11-27T20:00:40.830Z,16.47
2022-11-27T20:04:40.835Z,16.97
2022-11-27T20:08:40.491Z,16.47
2022-11-27T20:12:40.529Z,16.9
2022-11-27T20:16:40.568Z,14.53
2022-11-27T20:20:40.853Z,15.3
2022-11-27T20:24:58.078Z,17.33
2022-11-27T20:28:40.534Z,14.27
2022-11-27T20:32:40.514Z,15.23
2022-11-27T20:36:40.520Z,16.43
2022-11-27T20:40:40.427Z,14.9
2022-11-27T20:44:40.535Z,14.2
2022-11-27T20:48:40.632Z,14.73
2022-11-27T20:52:40.468Z,15
2022-11-27T20:56:40.401Z,15.03
2022-11-27T21:00:40.752Z,14.13
2022-11-27T21:04:40.478Z,14
2022-11-27T21:08:40.541Z,13.33
2022-11-27T21:12:40.507Z,14.83
2022-11-27T21:16:40.685Z,13.87
2022-11-27T21:20:40.520Z,14.5
2022-11-27T21:24:40.844Z,12.8
2022-11-27T21:28:40.688Z,13.43
2022-11-27T21:32:40.597Z,15.1
2022-11-27T21:36:40.518Z,13
2022-11-27T21:40:40.489Z,13.17
2022-11-27T21:44:40.847Z,11.23
2022-11-27T21:48:39.661Z,13.63
2022-11-27T21:52:40.513Z,11.33
2022-11-27T21:56:40.674Z,11.57
2022-11-27T22:00:40.522Z,11.4
2022-11-27T22:04:40.987Z,11.53
2022-11-27T22:08:40.459Z,12.93
2022-11-27T22:12:40.443Z,12.13
2022-11-27T22:16:45.259Z,12.67
2022-11-27T22:20:40.426Z,12
2022-11-27T22:24:41.061Z,10.2
2022-11-27T22:28:40.591Z,11.43
2022-11-27T22:32:40.657Z,12.03
2022-11-27T22:36:40.575Z,11.17
2022-11-27T22:40:40.328Z,11.67
2022-11-27T22:44:40.649Z,11.47
2022-11-27T22:48:40.491Z,12.33
2022-11-27T22:52:40.554Z,13.53
2022-11-27T22:56:41.144Z,12.43
2022-11-27T23:00:40.279Z,12.87
2022-11-27T23:04:41.062Z,11.9
2022-11-27T23:08:40.887Z,12.67
2022-11-27T23:12:40.408Z,11.73
2022-11-27T23:16:40.606Z,10.83
2022-11-27T23:20:40.410Z,12.73
2022-11-27T23:24:40.914Z,12.27
2022-11-27T23:28:40.122Z,12.2
2022-11-27T23:32:40.565Z,11.3
2022-11-27T23:36:40.524Z,11.6
2022-11-27T23:40:40.506Z,13.13
2022-11-27T23:44:40.778Z,13.67
2022-11-27T23:48:40.814Z,12.43
2022-11-27T23:52:40.577Z,13.6
2022-11-27T23:56:40.423Z,13.93
